Time;durP1;ratioP1;P1;durP2;ratioP2;P2;SDS_P1;SDS_P2;PMS_P1;PMS_P2;Temp;Humidity;BMP_temperature;BMP_pressure;BME280_temperature;BME280_humidity;BME280_pressure;Samples;Min_cycle;Max_cycle;Signal;HPM_P1;HPM_P2
2020/12/22 00:00:55;;;;;;;2.43;1.50;;;;;;;9.23;100.00;98245.53;4976459;28;20219;-64
2020/12/22 00:03:21;;;;;;;2.03;1.40;;;;;;;9.33;100.00;98254.56;4976750;28;20274;-65
2020/12/22 00:05:48;;;;;;;1.57;1.40;;;;;;;9.40;100.00;98250.59;4976524;28;20242;-65
2020/12/22 00:08:14;;;;;;;1.57;1.40;;;;;;;9.43;100.00;98255.69;4976233;28;20219;-64
2020/12/22 00:10:40;;;;;;;1.40;1.10;;;;;;;9.49;100.00;98248.22;4975820;28;20258;-65
2020/12/22 00:13:06;;;;;;;3.13;1.37;;;;;;;9.56;100.00;98238.13;4975560;28;20688;-64
2020/12/22 00:15:33;;;;;;;1.37;1.27;;;;;;;9.55;100.00;98236.44;4976004;28;20247;-64
2020/12/22 00:17:59;;;;;;;2.70;1.50;;;;;;;9.59;100.00;98245.84;4976012;28;20223;-64
2020/12/22 00:20:25;;;;;;;2.10;1.40;;;;;;;9.69;100.00;98232.00;4976240;28;20214;-64
2020/12/22 00:22:51;;;;;;;2.40;1.60;;;;;;;9.69;100.00;98220.56;4975912;28;20231;-64
2020/12/22 00:25:17;;;;;;;1.60;1.50;;;;;;;9.72;100.00;98223.03;4976211;28;20219;-64
2020/12/22 00:27:43;;;;;;;1.70;1.20;;;;;;;9.78;100.00;98209.44;4976123;28;20306;-64
2020/12/22 00:30:09;;;;;;;1.90;1.50;;;;;;;9.67;100.00;98206.66;4975660;28;20622;-64
2020/12/22 00:32:36;;;;;;;2.13;1.60;;;;;;;9.66;100.00;98205.78;4975749;28;20215;-65
2020/12/22 00:35:03;;;;;;;2.30;1.50;;;;;;;9.66;100.00;98197.03;4975844;28;20254;-65
2020/12/22 00:37:30;;;;;;;1.97;1.33;;;;;;;9.60;100.00;98205.34;4973855;28;20298;-64
2020/12/22 00:39:55;;;;;;;1.40;1.30;;;;;;;9.57;100.00;98205.53;4975755;28;20265;-66
2020/12/22 00:42:21;;;;;;;1.40;1.30;;;;;;;9.55;100.00;98208.25;4975688;28;20215;-65
2020/12/22 00:44:47;;;;;;;1.40;1.30;;;;;;;9.60;100.00;98200.91;4975616;28;20642;-64
2020/12/22 00:47:13;;;;;;;1.53;1.43;;;;;;;9.56;100.00;98199.41;4975698;28;20213;-65
2020/12/22 00:49:40;;;;;;;1.50;1.20;;;;;;;9.56;100.00;98204.69;4975657;28;20708;-65
2020/12/22 00:52:06;;;;;;;1.30;1.20;;;;;;;9.63;100.00;98205.13;4975915;28;20235;-66
2020/12/22 00:54:32;;;;;;;1.33;1.17;;;;;;;9.74;100.00;98218.50;4975433;28;20681;-66
2020/12/22 00:56:58;;;;;;;1.50;1.40;;;;;;;9.84;100.00;98212.50;4975419;28;20249;-65
2020/12/22 00:59:24;;;;;;;1.23;1.13;;;;;;;9.91;100.00;98226.19;4975268;28;20263;-65
2020/12/22 01:01:50;;;;;;;1.93;1.20;;;;;;;9.94;100.00;98231.25;4975463;28;20641;-65
2020/12/22 01:04:16;;;;;;;1.07;0.90;;;;;;;9.95;100.00;98228.50;4972847;28;20281;-65
2020/12/22 01:06:43;;;;;;;1.20;1.00;;;;;;;10.00;100.00;98228.19;4975060;28;20290;-66
2020/12/22 01:09:09;;;;;;;1.60;1.20;;;;;;;10.03;100.00;98212.19;4975183;28;20220;-66
2020/12/22 01:11:36;;;;;;;2.40;1.13;;;;;;;10.02;100.00;98218.38;4975234;28;20224;-63
2020/12/22 01:14:03;;;;;;;1.20;1.10;;;;;;;9.99;100.00;98223.88;4974987;28;20227;-64
2020/12/22 01:16:29;;;;;;;1.33;1.17;;;;;;;10.03;100.00;98214.81;4975146;28;20239;-64
2020/12/22 01:18:55;;;;;;;1.93;1.00;;;;;;;10.04;100.00;98221.81;4975058;28;20737;-64
2020/12/22 01:21:22;;;;;;;1.97;1.00;;;;;;;10.10;100.00;98216.13;4974817;28;20216;-64
2020/12/22 01:23:50;;;;;;;1.90;0.90;;;;;;;10.03;100.00;98225.38;4974768;28;20323;-64
2020/12/22 01:26:20;;;;;;;1.07;0.90;;;;;;;10.10;100.00;98216.97;4974994;28;20235;-64
2020/12/22 01:28:46;;;;;;;1.33;0.90;;;;;;;10.12;100.00;98224.78;4973866;28;20227;-64
2020/12/22 01:31:12;;;;;;;1.57;1.00;;;;;;;10.16;100.00;98221.00;4974315;28;20216;-64
2020/12/22 01:33:38;;;;;;;0.70;0.70;;;;;;;10.16;100.00;98227.13;4974845;28;20234;-64
2020/12/22 01:36:04;;;;;;;1.20;0.50;;;;;;;10.21;100.00;98227.66;4974523;28;20239;-63
2020/12/22 01:38:30;;;;;;;0.60;0.60;;;;;;;10.18;100.00;98213.81;4974977;28;20295;-63
2020/12/22 01:40:57;;;;;;;1.47;0.70;;;;;;;10.06;100.00;98219.91;4975046;28;20226;-66
2020/12/22 01:43:23;;;;;;;0.50;0.50;;;;;;;10.09;100.00;98217.09;4974778;28;20218;-65
2020/12/22 01:45:49;;;;;;;0.50;0.50;;;;;;;10.16;100.00;98210.44;4974501;28;20218;-65
2020/12/22 01:48:15;;;;;;;0.80;0.63;;;;;;;10.24;100.00;98208.13;4974763;28;20565;-64
2020/12/22 01:50:41;;;;;;;0.67;0.60;;;;;;;10.28;100.00;98222.84;4974400;28;20289;-64
2020/12/22 01:53:07;;;;;;;0.80;0.70;;;;;;;10.23;100.00;98211.72;4974685;28;20210;-65
2020/12/22 01:55:33;;;;;;;0.87;0.60;;;;;;;10.27;100.00;98207.94;4972834;28;20297;-64
2020/12/22 01:58:00;;;;;;;0.60;0.60;;;;;;;10.31;100.00;98217.34;4974145;28;20222;-65
2020/12/22 02:00:26;;;;;;;1.00;0.90;;;;;;;10.37;100.00;98219.56;4974420;28;20213;-65
2020/12/22 02:02:52;;;;;;;1.03;0.60;;;;;;;10.33;100.00;98218.09;4974459;28;20229;-66
2020/12/22 02:05:18;;;;;;;0.70;0.70;;;;;;;10.27;100.00;98218.50;4974472;28;20208;-65
2020/12/22 02:07:44;;;;;;;1.33;0.73;;;;;;;10.22;100.00;98223.25;4974370;28;20706;-65
2020/12/22 02:10:10;;;;;;;0.70;0.70;;;;;;;10.27;100.00;98219.34;4974343;28;20211;-66
2020/12/22 02:12:40;;;;;;;0.60;0.60;;;;;;;10.27;100.00;98211.41;4974381;28;20305;-65
2020/12/22 02:15:07;;;;;;;0.83;0.70;;;;;;;10.29;100.00;98206.03;4974259;28;20234;-66
2020/12/22 02:17:35;;;;;;;1.20;0.80;;;;;;;10.21;100.00;98195.16;4978279;28;20211;-66
2020/12/22 02:20:01;;;;;;;0.70;0.70;;;;;;;10.12;100.00;98193.09;4978287;28;20215;-66
2020/12/22 02:22:27;;;;;;;1.63;0.83;;;;;;;9.89;100.00;98204.28;4976360;28;20588;-66
2020/12/22 02:24:53;;;;;;;0.90;0.80;;;;;;;9.87;100.00;98198.28;4978320;28;20222;-66
2020/12/22 02:27:19;;;;;;;0.70;0.70;;;;;;;9.95;100.00;98201.25;4977899;28;20215;-66
2020/12/22 02:29:45;;;;;;;0.80;0.60;;;;;;;10.00;100.00;98199.16;4977944;28;20214;-66
2020/12/22 02:32:11;;;;;;;0.77;0.53;;;;;;;10.01;100.00;98185.84;4978025;28;20213;-66
2020/12/22 02:34:37;;;;;;;0.65;0.60;;;;;;;9.86;100.00;98180.75;4977537;28;20744;-66
2020/12/22 02:37:03;;;;;;;0.70;0.60;;;;;;;9.76;100.00;98175.22;4978017;28;20304;-66
2020/12/22 02:39:30;;;;;;;0.60;0.50;;;;;;;9.67;100.00;98196.09;4978094;28;20659;-66
2020/12/22 02:41:56;;;;;;;0.60;0.60;;;;;;;9.76;100.00;98200.75;4977935;28;20613;-66
2020/12/22 02:44:22;;;;;;;0.50;0.50;;;;;;;9.90;100.00;98187.53;4977881;28;20225;-66
2020/12/22 02:46:48;;;;;;;0.40;0.40;;;;;;;9.97;100.00;98188.81;4976651;28;20277;-67
2020/12/22 02:49:14;;;;;;;0.50;0.50;;;;;;;9.87;100.00;98179.78;4977770;28;20302;-66
2020/12/22 02:51:40;;;;;;;0.40;0.40;;;;;;;9.78;100.00;98170.69;4978447;28;20215;-66
2020/12/22 02:54:06;;;;;;;0.50;0.50;;;;;;;9.63;100.00;98163.78;4978388;28;20657;-66
2020/12/22 02:56:33;;;;;;;0.70;0.40;;;;;;;9.53;100.00;98172.34;4977614;28;20354;-65
2020/12/22 02:58:59;;;;;;;0.70;0.40;;;;;;;9.55;100.00;98175.75;4977849;28;20216;-66
2020/12/22 03:01:25;;;;;;;0.30;0.30;;;;;;;9.61;100.00;98170.09;4977593;28;20689;-66
2020/12/22 03:03:51;;;;;;;0.87;0.40;;;;;;;9.69;100.00;98189.78;4977239;28;20301;-66
2020/12/22 03:06:17;;;;;;;0.40;0.40;;;;;;;9.83;100.00;98189.72;4977577;28;20283;-65
2020/12/22 03:08:43;;;;;;;0.40;0.40;;;;;;;9.96;100.00;98182.66;4977571;28;20211;-66
2020/12/22 03:11:09;;;;;;;0.40;0.40;;;;;;;10.07;100.00;98169.66;4977208;28;20225;-66
2020/12/22 03:13:36;;;;;;;1.27;0.50;;;;;;;10.04;100.00;98169.84;4975726;28;20215;-65
2020/12/22 03:16:02;;;;;;;0.43;0.40;;;;;;;9.99;100.00;98171.94;4977188;28;20249;-65
2020/12/22 03:18:28;;;;;;;0.30;0.30;;;;;;;9.97;100.00;98179.09;4976978;28;20214;-66
2020/12/22 03:20:54;;;;;;;0.50;0.50;;;;;;;10.10;100.00;98173.88;4977129;28;20330;-66
2020/12/22 03:23:20;;;;;;;0.40;0.40;;;;;;;10.21;100.00;98174.84;4977289;28;20665;-66
2020/12/22 03:25:46;;;;;;;2.10;0.60;;;;;;;10.33;100.00;98173.19;4976907;28;20215;-66
2020/12/22 03:28:12;;;;;;;0.30;0.30;;;;;;;10.39;100.00;98176.25;4976002;28;20228;-65
2020/12/22 03:30:38;;;;;;;0.40;0.40;;;;;;;10.42;100.00;98175.19;4976897;28;20212;-66
2020/12/22 03:33:04;;;;;;;0.50;0.40;;;;;;;10.39;100.00;98178.06;4977218;28;20215;-66
2020/12/22 03:35:30;;;;;;;0.30;0.30;;;;;;;10.38;100.00;98165.78;4976615;28;20254;-65
2020/12/22 03:37:57;;;;;;;0.87;0.40;;;;;;;10.24;100.00;98156.16;4976915;28;20217;-66
2020/12/22 03:40:23;;;;;;;0.50;0.50;;;;;;;10.16;100.00;98163.72;4975240;28;20221;-67
2020/12/22 03:42:49;;;;;;;0.40;0.40;;;;;;;10.14;100.00;98159.50;4976901;28;20305;-66
2020/12/22 03:45:16;;;;;;;0.40;0.40;;;;;;;10.07;100.00;98158.22;4976619;28;20656;-66
2020/12/22 03:47:43;;;;;;;0.33;0.33;;;;;;;10.07;100.00;98163.50;4976578;28;20301;-66
2020/12/22 03:50:10;;;;;;;0.40;0.40;;;;;;;10.03;100.00;98172.56;4976667;28;20217;-66
2020/12/22 03:52:37;;;;;;;0.93;0.40;;;;;;;10.00;100.00;98170.97;4976757;28;20215;-66
2020/12/22 03:55:03;;;;;;;0.40;0.40;;;;;;;10.01;100.00;98179.72;4976387;28;20242;-66
2020/12/22 03:57:29;;;;;;;0.40;0.40;;;;;;;9.97;100.00;98183.53;4976739;28;20225;-68
2020/12/22 03:59:55;;;;;;;0.33;0.33;;;;;;;9.98;100.00;98186.03;4976519;28;20699;-66
2020/12/22 04:02:21;;;;;;;0.30;0.30;;;;;;;9.99;100.00;98186.91;4976442;28;20226;-67
2020/12/22 04:04:48;;;;;;;0.40;0.40;;;;;;;9.96;100.00;98182.66;4975598;28;20310;-66
2020/12/22 04:07:14;;;;;;;0.77;0.40;;;;;;;9.92;100.00;98181.16;4975779;28;20211;-65
2020/12/22 04:09:40;;;;;;;0.30;0.30;;;;;;;9.94;100.00;98194.28;4976117;28;20255;-66
2020/12/22 04:12:06;;;;;;;0.40;0.40;;;;;;;9.95;100.00;98199.47;4976462;28;20274;-66
2020/12/22 04:14:32;;;;;;;0.40;0.40;;;;;;;10.05;100.00;98202.38;4976245;28;20212;-66
2020/12/22 04:16:58;;;;;;;0.40;0.40;;;;;;;10.13;100.00;98194.78;4976222;28;20234;-66
2020/12/22 04:19:24;;;;;;;0.30;0.30;;;;;;;10.23;100.00;98196.75;4976197;28;20217;-66
2020/12/22 04:21:51;;;;;;;0.27;0.27;;;;;;;10.26;100.00;98196.53;4976177;28;21164;-67
2020/12/22 04:24:17;;;;;;;0.60;0.37;;;;;;;10.29;100.00;98200.75;4976214;28;20218;-66
2020/12/22 04:26:43;;;;;;;0.40;0.33;;;;;;;10.37;100.00;98195.78;4975961;28;20273;-65
2020/12/22 04:29:09;;;;;;;0.30;0.30;;;;;;;10.49;100.00;98189.69;4975840;28;20203;-66
2020/12/22 04:31:35;;;;;;;0.50;0.40;;;;;;;10.45;100.00;98190.84;4974100;28;20219;-65
2020/12/22 04:34:00;;;;;;;0.50;0.30;;;;;;;10.36;100.00;98191.47;4975711;28;20289;-65
2020/12/22 04:36:27;;;;;;;0.40;0.40;;;;;;;10.31;100.00;98188.28;4975682;28;20273;-67
2020/12/22 04:38:55;;;;;;;0.30;0.30;;;;;;;10.29;100.00;98206.03;4975793;28;20222;-67
2020/12/22 04:41:23;;;;;;;0.30;0.30;;;;;;;10.40;100.00;98191.16;4975891;28;20215;-66
2020/12/22 04:43:51;;;;;;;0.30;0.30;;;;;;;10.42;100.00;98196.34;4975580;28;20219;-66
2020/12/22 04:46:19;;;;;;;0.33;0.30;;;;;;;10.53;100.00;98194.66;4975513;28;20222;-66
2020/12/22 04:48:50;;;;;;;0.23;0.23;;;;;;;10.67;100.00;98205.16;4975513;28;20207;-66
2020/12/22 04:51:18;;;;;;;0.40;0.40;;;;;;;10.67;100.00;98212.22;4975576;28;20579;-66
2020/12/22 04:53:45;;;;;;;0.27;0.27;;;;;;;10.77;100.00;98210.66;4975553;28;20214;-66
2020/12/22 04:56:11;;;;;;;0.30;0.30;;;;;;;10.82;100.00;98211.19;4975510;28;20596;-66
2020/12/22 04:58:38;;;;;;;0.30;0.30;;;;;;;10.85;100.00;98210.97;4973591;28;20219;-65
2020/12/22 05:01:04;;;;;;;0.60;0.30;;;;;;;10.85;100.00;98211.81;4975504;28;20221;-65
2020/12/22 05:03:30;;;;;;;2.17;0.60;;;;;;;10.87;100.00;98211.69;4975417;28;20215;-65
2020/12/22 05:05:56;;;;;;;0.30;0.30;;;;;;;10.81;100.00;98199.75;4975239;28;20345;-65
2020/12/22 05:08:22;;;;;;;0.40;0.40;;;;;;;10.77;100.00;98203.53;4975407;28;20218;-65
2020/12/22 05:10:51;;;;;;;0.30;0.30;;;;;;;10.83;100.00;98204.94;4975139;28;20223;-65
2020/12/22 05:13:20;;;;;;;0.30;0.30;;;;;;;10.86;100.00;98207.34;4975216;28;20214;-65
2020/12/22 05:15:49;;;;;;;0.30;0.30;;;;;;;10.90;100.00;98217.59;4975049;28;20238;-65
2020/12/22 05:18:15;;;;;;;0.20;0.20;;;;;;;10.91;100.00;98215.81;4975162;28;20218;-65
2020/12/22 05:20:41;;;;;;;0.30;0.30;;;;;;;10.98;100.00;98217.09;4975171;28;20219;-68
2020/12/22 05:23:09;;;;;;;0.20;0.20;;;;;;;10.99;100.00;98224.91;4973302;28;20215;-67
2020/12/22 05:25:35;;;;;;;0.30;0.30;;;;;;;11.06;100.00;98220.06;4974814;28;20680;-65
2020/12/22 05:28:02;;;;;;;0.30;0.30;;;;;;;11.11;100.00;98217.91;4975032;28;20222;-64
2020/12/22 05:30:30;;;;;;;0.20;0.20;;;;;;;11.14;100.00;98212.44;4974870;28;20214;-65
2020/12/22 05:32:56;;;;;;;0.80;0.30;;;;;;;11.18;100.00;98219.22;4975033;28;20225;-65
2020/12/22 05:35:22;;;;;;;0.50;0.40;;;;;;;11.17;100.00;98212.19;4975002;28;20342;-66
2020/12/22 05:37:48;;;;;;;0.30;0.30;;;;;;;11.14;100.00;98207.13;4974895;28;20214;-66
2020/12/22 05:40:15;;;;;;;0.30;0.30;;;;;;;11.16;100.00;98207.88;4974831;28;20209;-66
2020/12/22 05:42:41;;;;;;;0.30;0.30;;;;;;;11.20;100.00;98212.81;4974529;28;20220;-66
2020/12/22 05:45:08;;;;;;;0.20;0.20;;;;;;;11.22;100.00;98210.09;4974703;28;20208;-66
2020/12/22 05:47:35;;;;;;;0.30;0.30;;;;;;;11.20;100.00;98218.13;4974698;28;20280;-66
2020/12/22 05:50:01;;;;;;;0.47;0.37;;;;;;;11.17;100.00;98218.34;4972849;28;20214;-66
2020/12/22 05:52:29;;;;;;;0.30;0.30;;;;;;;11.22;100.00;98223.31;4974468;28;20217;-65
2020/12/22 05:54:56;;;;;;;0.33;0.33;;;;;;;11.19;100.00;98228.84;4974283;28;20216;-66
2020/12/22 05:57:25;;;;;;;0.87;0.30;;;;;;;11.22;100.00;98226.81;4974788;28;20219;-67
2020/12/22 05:59:52;;;;;;;0.40;0.40;;;;;;;11.24;100.00;98216.97;4974617;28;20219;-66
2020/12/22 06:02:28;;;;;;;0.40;0.30;;;;;;;11.28;100.00;98217.59;4974601;28;20234;-66
2020/12/22 06:04:57;;;;;;;0.70;0.30;;;;;;;11.33;100.00;98224.25;4974269;28;20673;-67
2020/12/22 06:07:23;;;;;;;0.30;0.30;;;;;;;11.31;100.00;98226.16;4974520;28;20221;-67
2020/12/22 06:09:49;;;;;;;0.10;0.10;;;;;;;11.36;100.00;98217.88;4974512;28;20282;-67
2020/12/22 06:12:16;;;;;;;0.30;0.30;;;;;;;11.36;100.00;98229.31;4974408;28;20623;-67
2020/12/22 06:14:44;;;;;;;1.23;0.30;;;;;;;11.38;100.00;98221.28;4973609;28;20213;-67
2020/12/22 06:17:11;;;;;;;0.40;0.40;;;;;;;11.44;100.00;98223.50;4973124;28;20666;-66
2020/12/22 06:19:38;;;;;;;0.30;0.30;;;;;;;11.45;100.00;98226.03;4974327;28;20217;-66
2020/12/22 06:22:07;;;;;;;1.03;0.30;;;;;;;11.45;100.00;98233.97;4974273;28;20222;-67
2020/12/22 06:24:33;;;;;;;0.30;0.30;;;;;;;11.47;100.00;98228.56;4974098;28;20218;-66
2020/12/22 06:27:00;;;;;;;0.27;0.27;;;;;;;11.51;100.00;98227.41;4974078;28;20278;-66
2020/12/22 06:29:26;;;;;;;0.20;0.20;;;;;;;11.54;100.00;98221.88;4973973;28;20266;-65
2020/12/22 06:31:52;;;;;;;0.50;0.40;;;;;;;11.55;100.00;98224.41;4974025;28;20207;-66
2020/12/22 06:34:25;;;;;;;0.30;0.30;;;;;;;11.52;100.00;98223.78;4974119;28;20279;-65
2020/12/22 06:36:58;;;;;;;1.13;0.23;;;;;;;11.52;100.00;98218.50;4974227;28;20240;-67
2020/12/22 06:39:41;;;;;;;0.30;0.30;;;;;;;11.54;100.00;98228.03;4973862;28;20215;-66
2020/12/22 06:42:08;;;;;;;0.20;0.20;;;;;;;11.61;100.00;98225.81;4972327;28;20210;-68
2020/12/22 06:44:35;;;;;;;0.73;0.20;;;;;;;11.64;100.00;98222.94;4973831;28;20211;-68
2020/12/22 06:47:04;;;;;;;0.30;0.30;;;;;;;11.65;100.00;98221.97;4974153;28;20219;-68
2020/12/22 06:49:52;;;;;;;0.40;0.40;;;;;;;11.58;100.00;98218.06;4973775;28;20211;-68
2020/12/22 06:52:33;;;;;;;1.30;0.40;;;;;;;11.58;100.00;98223.34;4974134;28;20216;-67
2020/12/22 06:55:00;;;;;;;0.33;0.33;;;;;;;11.60;100.00;98224.09;4973881;28;20215;-67
2020/12/22 06:57:46;;;;;;;0.77;0.30;;;;;;;11.61;100.00;98228.47;4973913;28;20211;-64
2020/12/22 07:00:36;;;;;;;0.30;0.30;;;;;;;11.65;100.00;98229.91;4974050;28;20216;-65
2020/12/22 07:03:11;;;;;;;2.47;0.40;;;;;;;11.63;100.00;98221.25;4969456;28;20211;-65
2020/12/22 07:05:38;;;;;;;0.30;0.30;;;;;;;11.65;100.00;98224.63;4977271;28;20688;-65
2020/12/22 07:08:05;;;;;;;0.57;0.30;;;;;;;11.69;100.00;98228.75;4976009;28;20679;-65
2020/12/22 07:10:36;;;;;;;0.30;0.30;;;;;;;11.65;100.00;98232.56;4977279;28;20222;-64
2020/12/22 07:13:06;;;;;;;0.40;0.40;;;;;;;11.63;100.00;98237.13;4977520;28;20215;-66
2020/12/22 07:15:33;;;;;;;0.30;0.30;;;;;;;11.68;100.00;98243.78;4977412;28;20240;-66
2020/12/22 07:18:09;;;;;;;0.40;0.40;;;;;;;11.77;100.00;98240.50;4977194;28;20723;-66
2020/12/22 07:20:35;;;;;;;0.40;0.40;;;;;;;11.80;100.00;98247.38;4977468;28;20206;-66
2020/12/22 07:23:03;;;;;;;0.30;0.30;;;;;;;11.83;100.00;98249.78;4977324;28;20212;-68
2020/12/22 07:25:29;;;;;;;0.93;0.30;;;;;;;11.77;100.00;98242.28;4977220;28;20222;-68
2020/12/22 07:27:56;;;;;;;0.57;0.40;;;;;;;11.81;100.00;98254.34;4976881;28;20677;-68
2020/12/22 07:30:22;;;;;;;0.40;0.40;;;;;;;11.78;100.00;98249.25;4977119;28;20634;-67
2020/12/22 07:32:50;;;;;;;0.37;0.30;;;;;;;11.85;100.00;98258.44;4976438;28;20217;-67
2020/12/22 07:35:18;;;;;;;1.07;0.30;;;;;;;11.86;100.00;98260.16;4976004;28;20251;-67
2020/12/22 07:37:44;;;;;;;0.30;0.30;;;;;;;11.83;100.00;98261.22;4977012;28;20227;-67
2020/12/22 07:40:12;;;;;;;0.63;0.40;;;;;;;11.86;100.00;98254.88;4977096;28;20217;-67
2020/12/22 07:42:38;;;;;;;1.00;0.50;;;;;;;11.89;100.00;98244.03;4976739;28;20699;-68
2020/12/22 07:45:06;;;;;;;0.20;0.20;;;;;;;11.87;100.00;98251.25;4976898;28;20630;-68
2020/12/22 07:47:32;;;;;;;1.03;0.33;;;;;;;11.90;100.00;98261.63;4976943;28;20229;-68
2020/12/22 07:50:11;;;;;;;0.20;0.20;;;;;;;11.86;100.00;98262.81;4976784;28;20231;-67
2020/12/22 07:52:37;;;;;;;0.50;0.50;;;;;;;11.85;100.00;98263.75;4976752;28;20216;-68
2020/12/22 07:55:03;;;;;;;0.30;0.30;;;;;;;11.78;100.00;98268.66;4976757;28;20223;-67
2020/12/22 07:57:30;;;;;;;0.43;0.30;;;;;;;11.84;100.00;98267.34;4976601;28;20242;-67
2020/12/22 08:00:01;;;;;;;0.30;0.30;;;;;;;11.88;100.00;98267.03;4975295;28;20211;-65
2020/12/22 08:02:28;;;;;;;0.97;0.50;;;;;;;11.86;100.00;98271.59;4976609;28;20216;-66
2020/12/22 08:04:54;;;;;;;0.30;0.30;;;;;;;11.93;100.00;98272.00;4976384;28;20227;-65
2020/12/22 08:07:20;;;;;;;0.30;0.30;;;;;;;11.96;100.00;98266.47;4976290;28;20687;-65
2020/12/22 08:09:46;;;;;;;0.40;0.30;;;;;;;12.01;100.00;98277.59;4976487;28;20264;-65
2020/12/22 08:12:12;;;;;;;0.40;0.40;;;;;;;12.01;100.00;98290.81;4976684;28;20673;-65
2020/12/22 08:14:40;;;;;;;0.33;0.33;;;;;;;12.07;100.00;98278.00;4975947;28;20222;-65
2020/12/22 08:17:11;;;;;;;1.13;0.50;;;;;;;12.11;100.00;98281.25;4975867;28;20783;-64
2020/12/22 08:19:39;;;;;;;0.30;0.30;;;;;;;12.14;100.00;98281.88;4976250;28;20218;-64
2020/12/22 08:22:05;;;;;;;0.50;0.50;;;;;;;12.20;100.00;98280.59;4974355;28;20503;-65
2020/12/22 08:24:34;;;;;;;0.47;0.20;;;;;;;12.19;100.00;98278.91;4973920;28;20222;-65
2020/12/22 08:27:00;;;;;;;0.33;0.30;;;;;;;12.18;100.00;98295.75;4974175;28;20287;-65
2020/12/22 08:29:28;;;;;;;0.30;0.30;;;;;;;12.18;100.00;98298.41;4975653;28;20564;-65
2020/12/22 08:31:55;;;;;;;0.30;0.30;;;;;;;12.24;100.00;98298.78;4975651;28;20227;-65
2020/12/22 08:34:21;;;;;;;0.73;0.40;;;;;;;12.25;100.00;98302.28;4975566;28;20255;-66
2020/12/22 08:36:48;;;;;;;0.30;0.30;;;;;;;12.27;100.00;98298.56;4975481;28;20731;-66
2020/12/22 08:39:20;;;;;;;0.30;0.30;;;;;;;12.23;100.00;98299.75;4975579;28;20219;-65
2020/12/22 08:41:48;;;;;;;0.47;0.40;;;;;;;12.28;100.00;98304.75;4975829;28;20276;-65
2020/12/22 08:44:14;;;;;;;0.40;0.40;;;;;;;12.27;100.00;98305.66;4975499;28;20271;-66
2020/12/22 08:46:41;;;;;;;0.43;0.40;;;;;;;12.35;100.00;98304.16;4975661;28;20235;-65
2020/12/22 08:49:09;;;;;;;1.50;0.47;;;;;;;12.38;100.00;98318.97;4975707;28;20627;-65
2020/12/22 08:51:35;;;;;;;0.60;0.50;;;;;;;12.41;100.00;98318.78;4974044;28;20585;-66
2020/12/22 08:54:02;;;;;;;0.50;0.50;;;;;;;12.40;100.00;98325.88;4975377;28;20717;-66
2020/12/22 08:56:29;;;;;;;0.97;0.47;;;;;;;12.45;100.00;98326.38;4975502;28;20645;-67
2020/12/22 08:58:57;;;;;;;0.47;0.47;;;;;;;12.46;100.00;98330.72;4975600;28;20556;-67
2020/12/22 09:01:25;;;;;;;0.40;0.40;;;;;;;12.50;100.00;98336.63;4975153;28;20739;-67
2020/12/22 09:03:54;;;;;;;0.30;0.30;;;;;;;12.47;100.00;98331.59;4975214;28;20216;-67
2020/12/22 09:06:32;;;;;;;0.20;0.20;;;;;;;12.49;100.00;98327.00;4975410;28;20212;-66
2020/12/22 09:08:59;;;;;;;0.30;0.30;;;;;;;12.53;100.00;98328.47;4975120;28;20212;-66
2020/12/22 09:11:26;;;;;;;0.30;0.30;;;;;;;12.54;100.00;98330.16;4975286;28;20584;-66
2020/12/22 09:14:03;;;;;;;0.37;0.37;;;;;;;12.60;100.00;98337.66;4975241;28;20630;-66
2020/12/22 09:16:46;;;;;;;0.40;0.40;;;;;;;12.59;100.00;98335.97;4974828;28;20232;-65
2020/12/22 09:19:12;;;;;;;0.30;0.30;;;;;;;12.59;100.00;98336.81;4973824;28;20221;-66
2020/12/22 09:21:38;;;;;;;0.30;0.30;;;;;;;12.58;100.00;98328.97;4974831;28;20735;-66
2020/12/22 09:24:04;;;;;;;0.23;0.23;;;;;;;12.54;100.00;98341.59;4974848;28;20208;-65
2020/12/22 09:26:31;;;;;;;0.30;0.30;;;;;;;12.56;100.00;98333.53;4974641;28;20267;-66
2020/12/22 09:28:57;;;;;;;0.30;0.30;;;;;;;12.60;100.00;98327.88;4974622;28;20208;-67
2020/12/22 09:31:24;;;;;;;0.40;0.40;;;;;;;12.65;100.00;98324.91;4974897;28;20253;-66
2020/12/22 09:33:50;;;;;;;0.40;0.40;;;;;;;12.65;100.00;98335.53;4973850;28;20273;-66
2020/12/22 09:36:16;;;;;;;0.87;0.40;;;;;;;12.65;100.00;98330.22;4971825;28;20242;-67
2020/12/22 09:38:42;;;;;;;0.47;0.47;;;;;;;12.55;100.00;98331.84;4973958;28;20275;-66
2020/12/22 09:41:08;;;;;;;0.30;0.30;;;;;;;12.52;100.00;98334.72;4973826;28;20215;-66
2020/12/22 09:43:34;;;;;;;0.30;0.30;;;;;;;12.43;100.00;98340.72;4971615;28;20307;-66
2020/12/22 09:46:01;;;;;;;0.40;0.40;;;;;;;12.34;100.00;98326.31;4971876;28;20548;-66
2020/12/22 09:48:27;;;;;;;0.30;0.30;;;;;;;12.27;100.00;98342.78;4973613;28;20211;-65
2020/12/22 09:50:53;;;;;;;0.40;0.30;;;;;;;12.13;100.00;98340.28;4973235;28;20252;-64
2020/12/22 09:53:20;;;;;;;0.40;0.40;;;;;;;12.09;100.00;98357.34;4973757;28;20215;-64
2020/12/22 09:55:46;;;;;;;0.40;0.40;;;;;;;12.06;100.00;98349.63;4973332;28;20251;-65
2020/12/22 09:58:12;;;;;;;0.50;0.47;;;;;;;12.17;100.00;98349.72;4973039;28;20220;-64
2020/12/22 10:00:38;;;;;;;0.30;0.30;;;;;;;12.19;100.00;98348.66;4973674;28;20745;-66
2020/12/22 10:03:06;;;;;;;0.30;0.30;;;;;;;12.23;100.00;98344.81;4973947;28;20214;-66
2020/12/22 10:05:32;;;;;;;0.50;0.30;;;;;;;12.25;100.00;98344.69;4972546;28;20221;-66
2020/12/22 10:07:58;;;;;;;0.50;0.43;;;;;;;12.29;100.00;98349.66;4973768;28;20216;-66
2020/12/22 10:10:24;;;;;;;0.50;0.40;;;;;;;12.40;100.00;98356.84;4971884;28;20209;-66
2020/12/22 10:12:50;;;;;;;0.77;0.40;;;;;;;12.50;100.00;98360.50;4972933;28;20257;-65
2020/12/22 10:15:16;;;;;;;0.30;0.30;;;;;;;12.57;100.00;98359.09;4973418;28;20234;-65
2020/12/22 10:17:43;;;;;;;0.40;0.40;;;;;;;12.66;100.00;98353.13;4973615;28;20263;-65
2020/12/22 10:20:09;;;;;;;0.30;0.30;;;;;;;12.66;100.00;98361.06;4972632;28;20679;-66
2020/12/22 10:22:35;;;;;;;0.30;0.30;;;;;;;12.75;100.00;98347.97;4974137;28;20218;-66
2020/12/22 10:25:01;;;;;;;0.30;0.30;;;;;;;12.77;100.00;98351.34;4974255;28;20654;-65
2020/12/22 10:27:27;;;;;;;0.40;0.40;;;;;;;12.78;100.00;98352.22;4973760;28;20618;-65
2020/12/22 10:29:53;;;;;;;0.83;0.40;;;;;;;12.84;100.00;98346.44;4974038;28;20239;-65
2020/12/22 10:32:18;;;;;;;0.30;0.30;;;;;;;12.87;100.00;98347.06;4974076;28;20223;-65
2020/12/22 10:34:45;;;;;;;0.97;0.40;;;;;;;12.94;100.00;98352.75;4970930;28;20248;-64
2020/12/22 10:37:11;;;;;;;0.30;0.30;;;;;;;12.93;100.00;98351.91;4973263;28;20241;-65
2020/12/22 10:39:37;;;;;;;0.47;0.47;;;;;;;12.97;100.00;98347.25;4976797;28;20580;-65
2020/12/22 10:42:03;;;;;;;0.50;0.50;;;;;;;13.08;100.00;98344.63;4976399;28;20236;-66
2020/12/22 10:44:29;;;;;;;0.53;0.30;;;;;;;13.06;100.00;98355.38;4975873;28;20614;-66
2020/12/22 10:46:55;;;;;;;0.50;0.50;;;;;;;13.07;100.00;98353.56;4975871;28;20210;-65
2020/12/22 10:49:21;;;;;;;0.40;0.40;;;;;;;13.08;100.00;98350.78;4976373;28;20388;-65
2020/12/22 10:51:48;;;;;;;0.30;0.30;;;;;;;13.08;100.00;98345.47;4976478;28;20210;-65
2020/12/22 10:54:14;;;;;;;0.40;0.30;;;;;;;13.05;100.00;98347.50;4976531;28;20240;-66
2020/12/22 10:56:43;;;;;;;0.60;0.50;;;;;;;13.06;100.00;98344.75;4977183;28;20584;-65
2020/12/22 10:59:09;;;;;;;0.50;0.33;;;;;;;13.12;100.00;98346.06;4977962;28;20224;-65
2020/12/22 11:01:38;;;;;;;0.20;0.20;;;;;;;13.12;100.00;98343.44;4977629;28;20575;-64
2020/12/22 11:04:04;;;;;;;0.40;0.40;;;;;;;13.11;100.00;98344.38;4976085;28;20224;-65
2020/12/22 11:06:37;;;;;;;0.57;0.40;;;;;;;13.12;100.00;98351.38;4977204;28;20221;-65
2020/12/22 11:09:04;;;;;;;0.30;0.30;;;;;;;13.07;100.00;98343.78;4977398;28;20224;-65
2020/12/22 11:11:30;;;;;;;0.30;0.30;;;;;;;13.09;100.00;98347.16;4977477;28;20217;-65
2020/12/22 11:13:56;;;;;;;2.10;0.47;;;;;;;13.15;100.00;98343.22;4977486;28;20221;-65
2020/12/22 11:16:26;;;;;;;0.40;0.40;;;;;;;13.13;100.00;98348.63;4977441;28;20299;-65
2020/12/22 11:18:52;;;;;;;0.50;0.50;;;;;;;13.16;100.00;98358.16;4977332;28;20217;-65
2020/12/22 11:21:20;;;;;;;0.33;0.30;;;;;;;13.16;100.00;98358.16;4976977;28;20228;-65
2020/12/22 11:23:46;;;;;;;0.40;0.40;;;;;;;13.21;100.00;98356.00;4977214;28;20578;-65
2020/12/22 11:26:17;;;;;;;1.30;0.40;;;;;;;13.18;100.00;98350.91;4977251;28;20217;-65